sensor_id;sensor_type;location;lat;lon;timestamp;pressure;altitude;pressure_sealevel;temperature;humidity
16580;BME280;8402;51.466;6.806;2023-08-21T00:00:56;101957.94;;;22.81;74.41
16580;BME280;8402;51.466;6.806;2023-08-21T00:03:26;101951.97;;;22.79;74.50
16580;BME280;8402;51.466;6.806;2023-08-21T00:05:57;101947.97;;;22.76;75.31
16580;BME280;8402;51.466;6.806;2023-08-21T00:08:26;101935.25;;;22.72;75.42
16580;BME280;8402;51.466;6.806;2023-08-21T00:10:59;101937.50;;;22.66;76.15
16580;BME280;8402;51.466;6.806;2023-08-21T00:13:29;101927.13;;;22.60;76.01
16580;BME280;8402;51.466;6.806;2023-08-21T00:15:59;101934.16;;;22.57;76.03
16580;BME280;8402;51.466;6.806;2023-08-21T00:18:28;101936.50;;;22.55;76.38
16580;BME280;8402;51.466;6.806;2023-08-21T00:21:01;101933.75;;;22.55;76.29
16580;BME280;8402;51.466;6.806;2023-08-21T00:23:31;101930.13;;;22.51;76.48
16580;BME280;8402;51.466;6.806;2023-08-21T00:26:04;101941.47;;;22.46;76.47
16580;BME280;8402;51.466;6.806;2023-08-21T00:28:34;101932.63;;;22.37;76.43
16580;BME280;8402;51.466;6.806;2023-08-21T00:31:05;101931.75;;;22.33;77.20
16580;BME280;8402;51.466;6.806;2023-08-21T00:33:35;101931.31;;;22.31;77.12
16580;BME280;8402;51.466;6.806;2023-08-21T00:36:05;101932.03;;;22.28;76.87
16580;BME280;8402;51.466;6.806;2023-08-21T00:38:35;101926.00;;;22.22;76.79
16580;BME280;8402;51.466;6.806;2023-08-21T00:41:07;101924.03;;;22.22;77.66
16580;BME280;8402;51.466;6.806;2023-08-21T00:43:37;101928.41;;;22.23;77.42
16580;BME280;8402;51.466;6.806;2023-08-21T00:46:06;101926.06;;;22.25;76.98
16580;BME280;8402;51.466;6.806;2023-08-21T00:48:37;101928.84;;;22.25;77.29
16580;BME280;8402;51.466;6.806;2023-08-21T00:51:07;101926.50;;;22.28;76.93
16580;BME280;8402;51.466;6.806;2023-08-21T00:53:38;101929.25;;;22.28;77.34
16580;BME280;8402;51.466;6.806;2023-08-21T00:56:10;101929.34;;;22.31;77.23
16580;BME280;8402;51.466;6.806;2023-08-21T00:58:41;101924.19;;;22.30;77.29
16580;BME280;8402;51.466;6.806;2023-08-21T01:01:12;101922.56;;;22.29;77.54
16580;BME280;8402;51.466;6.806;2023-08-21T01:03:42;101919.38;;;22.27;77.32
16580;BME280;8402;51.466;6.806;2023-08-21T01:06:12;101915.44;;;22.28;77.41
16580;BME280;8402;51.466;6.806;2023-08-21T01:08:46;101923.72;;;22.28;77.26
16580;BME280;8402;51.466;6.806;2023-08-21T01:11:25;101922.41;;;22.21;77.35
16580;BME280;8402;51.466;6.806;2023-08-21T01:14:05;101926.66;;;22.15;77.19
16580;BME280;8402;51.466;6.806;2023-08-21T01:16:37;101923.03;;;22.11;77.62
16580;BME280;8402;51.466;6.806;2023-08-21T01:19:12;101927.63;;;22.07;77.81
16580;BME280;8402;51.466;6.806;2023-08-21T01:21:44;101933.00;;;22.00;77.92
16580;BME280;8402;51.466;6.806;2023-08-21T01:24:19;101927.34;;;21.93;78.46
16580;BME280;8402;51.466;6.806;2023-08-21T01:26:48;101932.38;;;21.87;78.17
16580;BME280;8402;51.466;6.806;2023-08-21T01:29:18;101926.75;;;21.84;78.49
16580;BME280;8402;51.466;6.806;2023-08-21T01:31:53;101932.56;;;21.79;78.19
16580;BME280;8402;51.466;6.806;2023-08-21T01:34:26;101937.22;;;21.75;78.38
16580;BME280;8402;51.466;6.806;2023-08-21T01:37:00;101934.72;;;21.69;78.36
16580;BME280;8402;51.466;6.806;2023-08-21T01:39:33;101926.03;;;21.67;78.58
16580;BME280;8402;51.466;6.806;2023-08-21T01:42:03;101925.59;;;21.65;78.38
16580;BME280;8402;51.466;6.806;2023-08-21T01:44:32;101925.94;;;21.64;78.58
16580;BME280;8402;51.466;6.806;2023-08-21T01:47:02;101925.13;;;21.63;78.43
16580;BME280;8402;51.466;6.806;2023-08-21T01:49:32;101927.47;;;21.61;78.33
16580;BME280;8402;51.466;6.806;2023-08-21T01:52:04;101930.94;;;21.58;78.52
16580;BME280;8402;51.466;6.806;2023-08-21T01:54:36;101928.19;;;21.58;78.52
16580;BME280;8402;51.466;6.806;2023-08-21T01:57:06;101926.56;;;21.57;78.14
16580;BME280;8402;51.466;6.806;2023-08-21T01:59:36;101925.75;;;21.57;78.27
16580;BME280;8402;51.466;6.806;2023-08-21T02:02:06;101919.91;;;21.58;78.34
16580;BME280;8402;51.466;6.806;2023-08-21T02:04:36;101925.88;;;21.60;78.10
16580;BME280;8402;51.466;6.806;2023-08-21T02:07:06;101916.41;;;21.61;78.49
16580;BME280;8402;51.466;6.806;2023-08-21T02:09:38;101915.25;;;21.62;78.16
16580;BME280;8402;51.466;6.806;2023-08-21T02:12:08;101919.59;;;21.63;78.42
16580;BME280;8402;51.466;6.806;2023-08-21T02:14:38;101920.06;;;21.65;78.73
16580;BME280;8402;51.466;6.806;2023-08-21T02:17:08;101917.31;;;21.65;78.82
16580;BME280;8402;51.466;6.806;2023-08-21T02:19:38;101918.44;;;21.64;78.89
16580;BME280;8402;51.466;6.806;2023-08-21T02:22:08;101913.28;;;21.63;78.70
16580;BME280;8402;51.466;6.806;2023-08-21T02:24:40;101922.72;;;21.62;78.12
16580;BME280;8402;51.466;6.806;2023-08-21T02:27:10;101919.53;;;21.60;78.07
16580;BME280;8402;51.466;6.806;2023-08-21T02:29:40;101926.56;;;21.57;78.53
16580;BME280;8402;51.466;6.806;2023-08-21T02:32:10;101928.47;;;21.53;78.32
16580;BME280;8402;51.466;6.806;2023-08-21T02:34:40;101916.09;;;21.47;78.44
16580;BME280;8402;51.466;6.806;2023-08-21T02:37:10;101930.97;;;21.42;78.39
16580;BME280;8402;51.466;6.806;2023-08-21T02:39:42;101924.56;;;21.38;78.44
16580;BME280;8402;51.466;6.806;2023-08-21T02:42:12;101928.41;;;21.34;78.64
16580;BME280;8402;51.466;6.806;2023-08-21T02:44:42;101932.31;;;21.33;78.71
16580;BME280;8402;51.466;6.806;2023-08-21T02:47:12;101926.72;;;21.29;78.62
16580;BME280;8402;51.466;6.806;2023-08-21T02:49:42;101927.78;;;21.25;79.04
16580;BME280;8402;51.466;6.806;2023-08-21T02:52:11;101936.75;;;21.22;79.07
16580;BME280;8402;51.466;6.806;2023-08-21T02:54:44;101930.34;;;21.17;79.50
16580;BME280;8402;51.466;6.806;2023-08-21T02:57:13;101923.94;;;21.13;79.00
16580;BME280;8402;51.466;6.806;2023-08-21T02:59:43;101927.06;;;21.12;79.73
16580;BME280;8402;51.466;6.806;2023-08-21T03:02:13;101927.00;;;21.08;79.66
16580;BME280;8402;51.466;6.806;2023-08-21T03:04:43;101928.84;;;21.04;79.41
16580;BME280;8402;51.466;6.806;2023-08-21T03:07:13;101922.41;;;21.00;79.61
16580;BME280;8402;51.466;6.806;2023-08-21T03:09:46;101915.66;;;20.98;80.07
16580;BME280;8402;51.466;6.806;2023-08-21T03:12:16;101918.78;;;20.96;79.73
16580;BME280;8402;51.466;6.806;2023-08-21T03:14:46;101922.25;;;20.93;80.30
16580;BME280;8402;51.466;6.806;2023-08-21T03:17:16;101923.78;;;20.91;80.06
16580;BME280;8402;51.466;6.806;2023-08-21T03:19:46;101927.31;;;20.91;79.79
16580;BME280;8402;51.466;6.806;2023-08-21T03:22:16;101924.56;;;20.91;79.66
16580;BME280;8402;51.466;6.806;2023-08-21T03:24:48;101931.69;;;20.92;80.08
16580;BME280;8402;51.466;6.806;2023-08-21T03:27:18;101932.84;;;20.91;79.98
16580;BME280;8402;51.466;6.806;2023-08-21T03:29:48;101928.59;;;20.94;80.31
16580;BME280;8402;51.466;6.806;2023-08-21T03:32:18;101924.31;;;20.96;80.28
16580;BME280;8402;51.466;6.806;2023-08-21T03:34:48;101925.91;;;20.97;80.57
16580;BME280;8402;51.466;6.806;2023-08-21T03:37:18;101915.66;;;20.98;80.29
16580;BME280;8402;51.466;6.806;2023-08-21T03:39:50;101912.56;;;20.99;80.17
16580;BME280;8402;51.466;6.806;2023-08-21T03:42:20;101920.50;;;21.01;80.37
16580;BME280;8402;51.466;6.806;2023-08-21T03:44:50;101919.66;;;21.00;80.06
16580;BME280;8402;51.466;6.806;2023-08-21T03:47:20;101911.38;;;21.00;80.45
16580;BME280;8402;51.466;6.806;2023-08-21T03:49:50;101912.56;;;20.99;80.53
16580;BME280;8402;51.466;6.806;2023-08-21T03:52:20;101912.56;;;20.99;80.34
16580;BME280;8402;51.466;6.806;2023-08-21T03:54:52;101912.84;;;20.94;80.04
16580;BME280;8402;51.466;6.806;2023-08-21T03:57:22;101912.66;;;20.87;80.46
16580;BME280;8402;51.466;6.806;2023-08-21T03:59:52;101914.50;;;20.83;80.66
16580;BME280;8402;51.466;6.806;2023-08-21T04:02:21;101913.63;;;20.79;80.77
16580;BME280;8402;51.466;6.806;2023-08-21T04:04:59;101910.41;;;20.77;80.67
16580;BME280;8402;51.466;6.806;2023-08-21T04:07:29;101912.72;;;20.75;80.92
16580;BME280;8402;51.466;6.806;2023-08-21T04:10:02;101921.00;;;20.75;80.61
16580;BME280;8402;51.466;6.806;2023-08-21T04:12:32;101918.97;;;20.72;80.69
16580;BME280;8402;51.466;6.806;2023-08-21T04:15:02;101925.63;;;20.71;80.81
16580;BME280;8402;51.466;6.806;2023-08-21T04:17:33;101929.91;;;20.68;81.33
16580;BME280;8402;51.466;6.806;2023-08-21T04:20:03;101920.81;;;20.68;81.19
16580;BME280;8402;51.466;6.806;2023-08-21T04:22:33;101925.91;;;20.66;80.98
16580;BME280;8402;51.466;6.806;2023-08-21T04:25:07;101928.19;;;20.64;81.37
16580;BME280;8402;51.466;6.806;2023-08-21T04:27:38;101933.25;;;20.61;81.55
16580;BME280;8402;51.466;6.806;2023-08-21T04:30:09;101930.50;;;20.61;81.57
16580;BME280;8402;51.466;6.806;2023-08-21T04:32:39;101931.22;;;20.58;81.72
16580;BME280;8402;51.466;6.806;2023-08-21T04:35:09;101938.69;;;20.58;82.01
16580;BME280;8402;51.466;6.806;2023-08-21T04:37:43;101936.28;;;20.56;82.01
16580;BME280;8402;51.466;6.806;2023-08-21T04:40:16;101933.88;;;20.55;81.95
16580;BME280;8402;51.466;6.806;2023-08-21T04:42:48;101927.56;;;20.54;82.12
16580;BME280;8402;51.466;6.806;2023-08-21T04:45:17;101932.63;;;20.52;82.54
16580;BME280;8402;51.466;6.806;2023-08-21T04:47:47;101937.00;;;20.53;82.48
16580;BME280;8402;51.466;6.806;2023-08-21T04:50:17;101941.34;;;20.54;82.38
16580;BME280;8402;51.466;6.806;2023-08-21T04:52:47;101933.50;;;20.56;82.58
16580;BME280;8402;51.466;6.806;2023-08-21T04:55:20;101931.91;;;20.55;82.78
16580;BME280;8402;51.466;6.806;2023-08-21T04:57:50;101946.16;;;20.57;82.97
16580;BME280;8402;51.466;6.806;2023-08-21T05:00:20;101949.38;;;20.59;83.07
16580;BME280;8402;51.466;6.806;2023-08-21T05:02:50;101940.38;;;20.63;82.86
16580;BME280;8402;51.466;6.806;2023-08-21T05:05:20;101945.66;;;20.68;83.05
16580;BME280;8402;51.466;6.806;2023-08-21T05:07:50;101946.19;;;20.73;83.54
16580;BME280;8402;51.466;6.806;2023-08-21T05:10:22;101939.59;;;20.78;82.95
16580;BME280;8402;51.466;6.806;2023-08-21T05:12:52;101945.13;;;20.78;82.88
16580;BME280;8402;51.466;6.806;2023-08-21T05:15:22;101941.66;;;20.81;82.94
16580;BME280;8402;51.466;6.806;2023-08-21T05:17:52;101949.22;;;20.84;83.04
16580;BME280;8402;51.466;6.806;2023-08-21T05:20:21;101944.59;;;20.88;83.57
16580;BME280;8402;51.466;6.806;2023-08-21T05:22:51;101939.88;;;20.88;83.07
16580;BME280;8402;51.466;6.806;2023-08-21T05:25:25;101937.03;;;20.85;83.43
16580;BME280;8402;51.466;6.806;2023-08-21T05:27:55;101943.69;;;20.84;83.61
16580;BME280;8402;51.466;6.806;2023-08-21T05:30:25;101944.41;;;20.81;83.42
16580;BME280;8402;51.466;6.806;2023-08-21T05:32:57;101940.31;;;20.75;83.68
16580;BME280;8402;51.466;6.806;2023-08-21T05:35:27;101942.63;;;20.73;84.00
16580;BME280;8402;51.466;6.806;2023-08-21T05:37:57;101944.91;;;20.71;84.33
16580;BME280;8402;51.466;6.806;2023-08-21T05:40:30;101943.31;;;20.70;83.99
16580;BME280;8402;51.466;6.806;2023-08-21T05:43:00;101944.91;;;20.71;83.95
16580;BME280;8402;51.466;6.806;2023-08-21T05:45:30;101943.78;;;20.72;84.14
16580;BME280;8402;51.466;6.806;2023-08-21T05:48:01;101936.66;;;20.71;84.34
16580;BME280;8402;51.466;6.806;2023-08-21T05:50:31;101933.88;;;20.71;84.00
16580;BME280;8402;51.466;6.806;2023-08-21T05:53:03;101937.00;;;20.69;84.01
16580;BME280;8402;51.466;6.806;2023-08-21T05:55:36;101941.28;;;20.67;84.14
16580;BME280;8402;51.466;6.806;2023-08-21T05:58:06;101946.81;;;20.67;83.90
16580;BME280;8402;51.466;6.806;2023-08-21T06:00:38;101946.38;;;20.65;84.25
16580;BME280;8402;51.466;6.806;2023-08-21T06:03:09;101945.19;;;20.66;84.29
16580;BME280;8402;51.466;6.806;2023-08-21T06:05:39;101944.03;;;20.67;84.05
16580;BME280;8402;51.466;6.806;2023-08-21T06:08:10;101949.56;;;20.67;84.14
16580;BME280;8402;51.466;6.806;2023-08-21T06:10:43;101940.56;;;20.70;84.02
16580;BME280;8402;51.466;6.806;2023-08-21T06:13:13;101952.06;;;20.72;83.69
16580;BME280;8402;51.466;6.806;2023-08-21T06:15:43;101949.75;;;20.74;84.11
16580;BME280;8402;51.466;6.806;2023-08-21T06:18:13;101948.22;;;20.76;84.24
16580;BME280;8402;51.466;6.806;2023-08-21T06:20:43;101955.34;;;20.77;83.99
16580;BME280;8402;51.466;6.806;2023-08-21T06:23:13;101951.09;;;20.80;84.13
16580;BME280;8402;51.466;6.806;2023-08-21T06:25:47;101955.63;;;20.88;83.66
16580;BME280;8402;51.466;6.806;2023-08-21T06:28:17;101955.91;;;20.99;83.81
16580;BME280;8402;51.466;6.806;2023-08-21T06:30:47;101956.63;;;21.11;83.49
16580;BME280;8402;51.466;6.806;2023-08-21T06:33:17;101956.06;;;21.22;82.72
16580;BME280;8402;51.466;6.806;2023-08-21T06:35:47;101960.28;;;21.31;82.90
16580;BME280;8402;51.466;6.806;2023-08-21T06:38:17;101965.78;;;21.47;82.56
16580;BME280;8402;51.466;6.806;2023-08-21T06:40:50;101954.06;;;21.69;82.28
16580;BME280;8402;51.466;6.806;2023-08-21T06:43:20;101971.59;;;21.77;80.86
16580;BME280;8402;51.466;6.806;2023-08-21T06:45:50;101964.72;;;21.87;80.55
16580;BME280;8402;51.466;6.806;2023-08-21T06:48:20;101964.44;;;21.92;80.13
16580;BME280;8402;51.466;6.806;2023-08-21T06:50:50;101963.72;;;21.95;80.18
16580;BME280;8402;51.466;6.806;2023-08-21T06:53:20;101961.47;;;22.01;79.62
16580;BME280;8402;51.466;6.806;2023-08-21T06:55:52;101963.13;;;22.05;80.25
16580;BME280;8402;51.466;6.806;2023-08-21T06:58:22;101959.69;;;22.08;81.09
16580;BME280;8402;51.466;6.806;2023-08-21T07:00:53;101964.13;;;22.13;81.12
16580;BME280;8402;51.466;6.806;2023-08-21T07:03:24;101971.03;;;22.22;81.59
16580;BME280;8402;51.466;6.806;2023-08-21T07:05:54;101968.56;;;22.37;81.76
16580;BME280;8402;51.466;6.806;2023-08-21T07:08:25;101971.44;;;22.63;79.95
16580;BME280;8402;51.466;6.806;2023-08-21T07:10:58;101977.16;;;22.93;79.71
16580;BME280;8402;51.466;6.806;2023-08-21T07:13:31;101977.31;;;23.27;78.38
16580;BME280;8402;51.466;6.806;2023-08-21T07:16:01;101980.16;;;23.57;77.64
16580;BME280;8402;51.466;6.806;2023-08-21T07:18:33;101972.66;;;23.84;75.96
16580;BME280;8402;51.466;6.806;2023-08-21T07:21:03;101972.94;;;24.05;75.07
16580;BME280;8402;51.466;6.806;2023-08-21T07:23:52;101975.72;;;24.35;74.35
16580;BME280;8402;51.466;6.806;2023-08-21T07:26:25;101974.38;;;24.56;73.44
16580;BME280;8402;51.466;6.806;2023-08-21T07:28:55;101981.97;;;24.62;71.90
16580;BME280;8402;51.466;6.806;2023-08-21T07:31:25;101983.88;;;24.55;72.52
16580;BME280;8402;51.466;6.806;2023-08-21T07:33:55;101980.88;;;24.70;71.89
16580;BME280;8402;51.466;6.806;2023-08-21T07:36:25;101984.25;;;24.90;70.98
16580;BME280;8402;51.466;6.806;2023-08-21T07:38:55;101982.81;;;25.07;70.47
16580;BME280;8402;51.466;6.806;2023-08-21T07:41:27;101986.59;;;25.29;68.30
16580;BME280;8402;51.466;6.806;2023-08-21T07:43:57;101982.38;;;25.49;68.25
16580;BME280;8402;51.466;6.806;2023-08-21T07:46:27;101988.94;;;25.78;67.79
16580;BME280;8402;51.466;6.806;2023-08-21T07:48:57;101979.94;;;26.03;67.88
16580;BME280;8402;51.466;6.806;2023-08-21T07:51:27;101987.97;;;26.22;67.70
16580;BME280;8402;51.466;6.806;2023-08-21T07:53:57;101988.44;;;26.42;66.90
16580;BME280;8402;51.466;6.806;2023-08-21T07:56:29;101983.34;;;26.58;65.41
16580;BME280;8402;51.466;6.806;2023-08-21T07:58:59;101973.41;;;26.72;65.44
16580;BME280;8402;51.466;6.806;2023-08-21T08:01:29;101983.78;;;26.85;62.97
16580;BME280;8402;51.466;6.806;2023-08-21T08:03:59;101981.41;;;26.98;63.22
16580;BME280;8402;51.466;6.806;2023-08-21T08:06:31;101982.25;;;27.17;63.75
16580;BME280;8402;51.466;6.806;2023-08-21T08:09:02;101985.00;;;27.34;62.73
16580;BME280;8402;51.466;6.806;2023-08-21T08:11:35;101976.22;;;27.57;61.73
16580;BME280;8402;51.466;6.806;2023-08-21T08:14:05;101971.06;;;27.59;60.00
16580;BME280;8402;51.466;6.806;2023-08-21T08:16:35;101979.81;;;27.79;61.27
16580;BME280;8402;51.466;6.806;2023-08-21T08:19:05;101973.34;;;27.93;58.66
16580;BME280;8402;51.466;6.806;2023-08-21T08:21:34;101969.34;;;28.08;58.85
16580;BME280;8402;51.466;6.806;2023-08-21T08:24:05;101974.03;;;28.25;58.54
16580;BME280;8402;51.466;6.806;2023-08-21T08:26:38;101971.53;;;28.49;59.22
16580;BME280;8402;51.466;6.806;2023-08-21T08:29:09;101971.41;;;28.70;58.13
16580;BME280;8402;51.466;6.806;2023-08-21T08:31:39;101971.28;;;28.88;56.82
16580;BME280;8402;51.466;6.806;2023-08-21T08:34:09;101970.34;;;29.09;57.16
16580;BME280;8402;51.466;6.806;2023-08-21T08:36:39;101975.94;;;29.09;56.28
16580;BME280;8402;51.466;6.806;2023-08-21T08:39:10;101971.81;;;29.24;56.65
16580;BME280;8402;51.466;6.806;2023-08-21T08:41:50;101976.06;;;29.36;55.57
16580;BME280;8402;51.466;6.806;2023-08-21T08:44:21;101973.56;;;29.49;56.40
16580;BME280;8402;51.466;6.806;2023-08-21T08:46:54;101972.72;;;29.59;56.38
16580;BME280;8402;51.466;6.806;2023-08-21T08:49:24;101983.41;;;29.68;55.43
16580;BME280;8402;51.466;6.806;2023-08-21T08:51:54;101972.16;;;29.71;54.71
16580;BME280;8402;51.466;6.806;2023-08-21T08:54:25;101974.59;;;29.69;54.67
16580;BME280;8402;51.466;6.806;2023-08-21T08:57:01;101984.22;;;29.65;51.89
16580;BME280;8402;51.466;6.806;2023-08-21T08:59:32;101975.34;;;29.73;53.72
16580;BME280;8402;51.466;6.806;2023-08-21T09:02:02;101972.00;;;29.85;52.89
16580;BME280;8402;51.466;6.806;2023-08-21T09:04:33;101977.56;;;29.89;52.49
16580;BME280;8402;51.466;6.806;2023-08-21T09:07:06;101976.22;;;30.01;53.16
16580;BME280;8402;51.466;6.806;2023-08-21T09:09:39;101980.47;;;30.16;52.15
16580;BME280;8402;51.466;6.806;2023-08-21T09:12:13;101972.78;;;30.20;50.98
16580;BME280;8402;51.466;6.806;2023-08-21T09:14:44;101973.41;;;30.35;50.88
16580;BME280;8402;51.466;6.806;2023-08-21T09:17:14;101969.66;;;30.45;51.63
16580;BME280;8402;51.466;6.806;2023-08-21T09:19:44;101969.38;;;30.63;51.26
16580;BME280;8402;51.466;6.806;2023-08-21T09:22:15;101958.44;;;30.76;51.04
16580;BME280;8402;51.466;6.806;2023-08-21T09:25:00;101956.88;;;30.71;50.50
16580;BME280;8402;51.466;6.806;2023-08-21T09:27:38;101967.50;;;30.83;49.68
16580;BME280;8402;51.466;6.806;2023-08-21T09:30:09;101974.09;;;30.96;49.90
16580;BME280;8402;51.466;6.806;2023-08-21T09:32:53;101963.88;;;31.10;49.93
16580;BME280;8402;51.466;6.806;2023-08-21T09:35:24;101969.72;;;31.19;50.39
16580;BME280;8402;51.466;6.806;2023-08-21T09:37:54;101972.50;;;31.22;49.27
16580;BME280;8402;51.466;6.806;2023-08-21T09:40:24;101966.91;;;31.19;48.34
16580;BME280;8402;51.466;6.806;2023-08-21T09:42:56;101980.56;;;31.17;48.12
16580;BME280;8402;51.466;6.806;2023-08-21T09:45:28;101974.00;;;31.27;48.98
16580;BME280;8402;51.466;6.806;2023-08-21T09:47:58;101963.75;;;31.40;48.17
16580;BME280;8402;51.466;6.806;2023-08-21T09:50:29;101966.28;;;31.55;48.40
16580;BME280;8402;51.466;6.806;2023-08-21T09:52:59;101962.25;;;31.56;47.27
16580;BME280;8402;51.466;6.806;2023-08-21T09:55:29;101971.41;;;31.60;47.57
16580;BME280;8402;51.466;6.806;2023-08-21T09:58:04;101963.00;;;31.60;47.01
16580;BME280;8402;51.466;6.806;2023-08-21T10:00:36;101975.78;;;31.61;47.82
16580;BME280;8402;51.466;6.806;2023-08-21T10:03:07;101956.59;;;31.59;47.42
16580;BME280;8402;51.466;6.806;2023-08-21T10:05:39;101948.72;;;31.50;45.85
16580;BME280;8402;51.466;6.806;2023-08-21T10:08:09;101953.41;;;31.57;46.92
16580;BME280;8402;51.466;6.806;2023-08-21T10:10:40;101946.38;;;31.69;47.06
16580;BME280;8402;51.466;6.806;2023-08-21T10:13:13;101949.50;;;31.94;45.76
16580;BME280;8402;51.466;6.806;2023-08-21T10:15:44;101950.94;;;32.02;46.57
16580;BME280;8402;51.466;6.806;2023-08-21T10:18:19;101962.94;;;31.83;45.40
16580;BME280;8402;51.466;6.806;2023-08-21T10:20:51;101962.34;;;31.72;46.11
16580;BME280;8402;51.466;6.806;2023-08-21T10:23:25;101954.66;;;31.76;46.13
16580;BME280;8402;51.466;6.806;2023-08-21T10:25:55;101951.72;;;31.83;47.31
16580;BME280;8402;51.466;6.806;2023-08-21T10:28:50;101948.88;;;31.87;45.49
16580;BME280;8402;51.466;6.806;2023-08-21T10:31:28;101944.03;;;31.87;46.16
16580;BME280;8402;51.466;6.806;2023-08-21T10:34:00;101956.53;;;32.02;46.19
16580;BME280;8402;51.466;6.806;2023-08-21T10:39:31;101949.19;;;32.09;46.60
16580;BME280;8402;51.466;6.806;2023-08-21T10:42:06;101947.75;;;32.00;45.42
16580;BME280;8402;51.466;6.806;2023-08-21T10:44:52;101956.25;;;32.17;45.37
16580;BME280;8402;51.466;6.806;2023-08-21T10:47:23;101950.47;;;32.24;44.36
16580;BME280;8402;51.466;6.806;2023-08-21T10:50:03;101952.47;;;32.23;44.38
16580;BME280;8402;51.466;6.806;2023-08-21T10:52:36;101952.41;;;32.07;44.78
16580;BME280;8402;51.466;6.806;2023-08-21T10:55:08;101951.25;;;32.24;45.25
16580;BME280;8402;51.466;6.806;2023-08-21T10:57:39;101956.94;;;32.21;44.81
16580;BME280;8402;51.466;6.806;2023-08-21T11:00:14;101956.13;;;32.40;44.57
16580;BME280;8402;51.466;6.806;2023-08-21T11:02:45;101946.56;;;32.38;44.03
16580;BME280;8402;51.466;6.806;2023-08-21T11:05:16;101944.00;;;32.43;44.32
16580;BME280;8402;51.466;6.806;2023-08-21T11:07:47;101948.16;;;32.55;44.78
16580;BME280;8402;51.466;6.806;2023-08-21T11:10:22;101945.44;;;32.51;44.30
16580;BME280;8402;51.466;6.806;2023-08-21T11:12:53;101952.03;;;32.61;44.21
16580;BME280;8402;51.466;6.806;2023-08-21T11:15:28;101952.38;;;32.63;42.59
16580;BME280;8402;51.466;6.806;2023-08-21T11:18:00;101954.22;;;32.70;44.50
16580;BME280;8402;51.466;6.806;2023-08-21T11:20:30;101955.03;;;32.70;44.02
16580;BME280;8402;51.466;6.806;2023-08-21T11:23:02;101960.47;;;32.77;44.27
16580;BME280;8402;51.466;6.806;2023-08-21T11:25:38;101955.41;;;32.89;43.76
16580;BME280;8402;51.466;6.806;2023-08-21T11:28:08;101946.81;;;32.96;43.39
16580;BME280;8402;51.466;6.806;2023-08-21T11:30:42;101952.66;;;33.18;42.60
16580;BME280;8402;51.466;6.806;2023-08-21T11:33:13;101954.38;;;33.28;43.84
16580;BME280;8402;51.466;6.806;2023-08-21T11:35:43;101949.66;;;33.25;43.82
16580;BME280;8402;51.466;6.806;2023-08-21T11:38:16;101960.00;;;33.28;42.52
16580;BME280;8402;51.466;6.806;2023-08-21T11:40:56;101963.38;;;33.23;41.45
16580;BME280;8402;51.466;6.806;2023-08-21T11:43:34;101960.72;;;33.32;41.14
16580;BME280;8402;51.466;6.806;2023-08-21T11:46:08;101963.00;;;33.37;41.70
16580;BME280;8402;51.466;6.806;2023-08-21T11:48:41;101957.03;;;33.51;42.05
16580;BME280;8402;51.466;6.806;2023-08-21T11:51:12;101965.00;;;33.53;43.31
16580;BME280;8402;51.466;6.806;2023-08-21T11:53:42;101960.16;;;33.53;42.72
16580;BME280;8402;51.466;6.806;2023-08-21T11:56:14;101962.91;;;33.70;42.89
16580;BME280;8402;51.466;6.806;2023-08-21T11:58:45;101944.56;;;33.65;42.79
16580;BME280;8402;51.466;6.806;2023-08-21T12:01:23;101943.25;;;33.24;40.28
16580;BME280;8402;51.466;6.806;2023-08-21T12:03:53;101949.47;;;33.32;42.89
16580;BME280;8402;51.466;6.806;2023-08-21T12:06:24;101948.22;;;33.33;43.24
16580;BME280;8402;51.466;6.806;2023-08-21T12:09:00;101939.97;;;33.42;42.25
16580;BME280;8402;51.466;6.806;2023-08-21T12:11:32;101938.13;;;33.64;43.21
16580;BME280;8402;51.466;6.806;2023-08-21T12:14:04;101933.00;;;33.76;41.64
16580;BME280;8402;51.466;6.806;2023-08-21T12:16:37;101937.59;;;33.70;41.55
16580;BME280;8402;51.466;6.806;2023-08-21T12:19:09;101931.19;;;33.69;42.44
16580;BME280;8402;51.466;6.806;2023-08-21T12:21:40;101939.78;;;33.49;41.74
16580;BME280;8402;51.466;6.806;2023-08-21T12:24:10;101934.81;;;33.24;42.08
16580;BME280;8402;51.466;6.806;2023-08-21T12:26:40;101927.19;;;32.92;43.30
16580;BME280;8402;51.466;6.806;2023-08-21T12:29:16;101931.84;;;32.99;44.00
16580;BME280;8402;51.466;6.806;2023-08-21T12:31:49;101934.75;;;33.11;41.90
16580;BME280;8402;51.466;6.806;2023-08-21T12:34:19;101929.13;;;33.11;43.34
16580;BME280;8402;51.466;6.806;2023-08-21T12:36:50;101938.06;;;33.39;43.88
16580;BME280;8402;51.466;6.806;2023-08-21T12:39:22;101924.41;;;33.66;43.26
16580;BME280;8402;51.466;6.806;2023-08-21T12:41:52;101916.09;;;33.76;43.05
16580;BME280;8402;51.466;6.806;2023-08-21T12:44:22;101921.25;;;33.64;40.70
16580;BME280;8402;51.466;6.806;2023-08-21T12:46:55;101924.13;;;33.48;42.28
16580;BME280;8402;51.466;6.806;2023-08-21T12:49:25;101929.00;;;33.31;41.84
16580;BME280;8402;51.466;6.806;2023-08-21T12:51:57;101929.91;;;33.12;42.51
16580;BME280;8402;51.466;6.806;2023-08-21T12:54:27;101929.81;;;32.99;43.04
16580;BME280;8402;51.466;6.806;2023-08-21T12:57:00;101939.84;;;32.68;42.64
16580;BME280;8402;51.466;6.806;2023-08-21T12:59:29;101940.19;;;32.53;43.71
16580;BME280;8402;51.466;6.806;2023-08-21T13:02:02;101933.94;;;32.46;43.92
16580;BME280;8402;51.466;6.806;2023-08-21T13:04:34;101932.09;;;32.55;44.59
16580;BME280;8402;51.466;6.806;2023-08-21T13:07:04;101921.91;;;32.62;44.10
16580;BME280;8402;51.466;6.806;2023-08-21T13:09:34;101927.53;;;32.62;45.21
16580;BME280;8402;51.466;6.806;2023-08-21T13:12:05;101925.44;;;32.66;44.56
16580;BME280;8402;51.466;6.806;2023-08-21T13:14:35;101928.88;;;32.90;44.76
16580;BME280;8402;51.466;6.806;2023-08-21T13:17:07;101930.88;;;33.05;42.87
16580;BME280;8402;51.466;6.806;2023-08-21T13:19:37;101922.59;;;33.14;43.88
16580;BME280;8402;51.466;6.806;2023-08-21T13:22:07;101918.56;;;33.16;43.77
16580;BME280;8402;51.466;6.806;2023-08-21T13:24:37;101922.19;;;33.00;43.93